sensor_id;sensor_type;location;lat;lon;timestamp;pressure;altitude;pressure_sealevel;temperature;humidity
34034;BME280;63481;52.588;22.472;2023-04-20T00:00:22;100548.69;;;9.08;78.96
34034;BME280;63481;52.588;22.472;2023-04-20T00:01:14;100546.80;;;9.05;78.83
34034;BME280;63481;52.588;22.472;2023-04-20T00:01:47;100544.06;;;9.06;78.90
34034;BME280;63481;52.588;22.472;2023-04-20T00:02:19;100544.79;;;9.07;78.99
34034;BME280;63481;52.588;22.472;2023-04-20T00:02:52;100543.64;;;9.08;78.60
34034;BME280;63481;52.588;22.472;2023-04-20T00:03:25;100544.66;;;9.07;78.66
34034;BME280;63481;52.588;22.472;2023-04-20T00:03:58;100542.40;;;9.06;78.72
34034;BME280;63481;52.588;22.472;2023-04-20T00:04:32;100543.23;;;9.07;78.70
34034;BME280;63481;52.588;22.472;2023-04-20T00:05:05;100543.13;;;9.06;78.67
34034;BME280;63481;52.588;22.472;2023-04-20T00:05:40;100542.54;;;9.04;78.74
34034;BME280;63481;52.588;22.472;2023-04-20T00:06:12;100545.84;;;9.03;78.94
34034;BME280;63481;52.588;22.472;2023-04-20T00:06:46;100545.17;;;9.03;78.80
34034;BME280;63481;52.588;22.472;2023-04-20T00:07:18;100545.11;;;9.04;78.69
34034;BME280;63481;52.588;22.472;2023-04-20T00:07:50;100546.95;;;9.08;78.57
34034;BME280;63481;52.588;22.472;2023-04-20T00:08:23;100543.13;;;9.08;78.22
34034;BME280;63481;52.588;22.472;2023-04-20T00:08:55;100544.23;;;9.13;78.41
34034;BME280;63481;52.588;22.472;2023-04-20T00:09:27;100548.66;;;9.19;78.11
34034;BME280;63481;52.588;22.472;2023-04-20T00:09:59;100541.09;;;9.20;78.06
34034;BME280;63481;52.588;22.472;2023-04-20T00:10:31;100543.65;;;9.18;78.05
34034;BME280;63481;52.588;22.472;2023-04-20T00:11:03;100544.14;;;9.15;77.94
34034;BME280;63481;52.588;22.472;2023-04-20T00:11:35;100539.98;;;9.14;78.32
34034;BME280;63481;52.588;22.472;2023-04-20T00:12:07;100542.80;;;9.13;78.06
34034;BME280;63481;52.588;22.472;2023-04-20T00:12:41;100542.44;;;9.15;78.05
34034;BME280;63481;52.588;22.472;2023-04-20T00:13:13;100544.18;;;9.20;78.11
34034;BME280;63481;52.588;22.472;2023-04-20T00:13:45;100543.66;;;9.22;77.63
34034;BME280;63481;52.588;22.472;2023-04-20T00:14:18;100542.48;;;9.20;77.89
34034;BME280;63481;52.588;22.472;2023-04-20T00:14:51;100548.55;;;9.17;77.94
34034;BME280;63481;52.588;22.472;2023-04-20T00:15:23;100543.96;;;9.15;78.14
34034;BME280;63481;52.588;22.472;2023-04-20T00:15:55;100542.61;;;9.15;78.21
34034;BME280;63481;52.588;22.472;2023-04-20T00:16:27;100544.88;;;9.21;78.39
34034;BME280;63481;52.588;22.472;2023-04-20T00:16:59;100543.05;;;9.22;78.27
34034;BME280;63481;52.588;22.472;2023-04-20T00:17:31;100542.67;;;9.21;78.46
34034;BME280;63481;52.588;22.472;2023-04-20T00:18:03;100546.86;;;9.19;78.44
34034;BME280;63481;52.588;22.472;2023-04-20T00:18:35;100544.93;;;9.19;78.27
34034;BME280;63481;52.588;22.472;2023-04-20T00:19:07;100545.09;;;9.17;78.02
34034;BME280;63481;52.588;22.472;2023-04-20T00:19:40;100547.66;;;9.16;78.11
34034;BME280;63481;52.588;22.472;2023-04-20T00:20:12;100548.54;;;9.18;78.00
34034;BME280;63481;52.588;22.472;2023-04-20T00:20:46;100548.11;;;9.20;77.99
34034;BME280;63481;52.588;22.472;2023-04-20T00:21:19;100545.45;;;9.20;77.78
34034;BME280;63481;52.588;22.472;2023-04-20T00:21:55;100542.33;;;9.20;77.78
34034;BME280;63481;52.588;22.472;2023-04-20T00:22:27;100542.97;;;9.22;78.04
34034;BME280;63481;52.588;22.472;2023-04-20T00:22:59;100544.20;;;9.23;77.89
34034;BME280;63481;52.588;22.472;2023-04-20T00:23:31;100545.05;;;9.22;77.87
34034;BME280;63481;52.588;22.472;2023-04-20T00:24:03;100540.15;;;9.23;77.79
34034;BME280;63481;52.588;22.472;2023-04-20T00:24:35;100539.27;;;9.24;77.91
34034;BME280;63481;52.588;22.472;2023-04-20T00:25:08;100540.19;;;9.23;78.01
34034;BME280;63481;52.588;22.472;2023-04-20T00:25:40;100544.96;;;9.21;78.00
34034;BME280;63481;52.588;22.472;2023-04-20T00:26:12;100542.85;;;9.18;78.20
34034;BME280;63481;52.588;22.472;2023-04-20T00:26:45;100542.70;;;9.17;78.53
34034;BME280;63481;52.588;22.472;2023-04-20T00:27:18;100545.23;;;9.15;78.41
34034;BME280;63481;52.588;22.472;2023-04-20T00:27:50;100546.05;;;9.15;78.29
34034;BME280;63481;52.588;22.472;2023-04-20T00:28:24;100545.38;;;9.18;78.17
34034;BME280;63481;52.588;22.472;2023-04-20T00:28:59;100546.11;;;9.21;78.04
34034;BME280;63481;52.588;22.472;2023-04-20T00:29:32;100545.44;;;9.23;78.31
34034;BME280;63481;52.588;22.472;2023-04-20T00:30:04;100545.01;;;9.21;78.43
34034;BME280;63481;52.588;22.472;2023-04-20T00:30:37;100547.27;;;9.21;78.34
34034;BME280;63481;52.588;22.472;2023-04-20T00:31:09;100544.73;;;9.22;78.53
34034;BME280;63481;52.588;22.472;2023-04-20T00:31:42;100542.85;;;9.23;78.40
34034;BME280;63481;52.588;22.472;2023-04-20T00:32:14;100541.83;;;9.22;78.18
34034;BME280;63481;52.588;22.472;2023-04-20T00:32:46;100542.09;;;9.17;78.51
34034;BME280;63481;52.588;22.472;2023-04-20T00:33:18;100541.77;;;9.16;78.65
34034;BME280;63481;52.588;22.472;2023-04-20T00:33:50;100542.20;;;9.18;78.38
34034;BME280;63481;52.588;22.472;2023-04-20T00:34:23;100539.93;;;9.18;78.50
34034;BME280;63481;52.588;22.472;2023-04-20T00:34:55;100542.04;;;9.15;78.68
34034;BME280;63481;52.588;22.472;2023-04-20T00:35:28;100544.91;;;9.12;78.96
34034;BME280;63481;52.588;22.472;2023-04-20T00:36:00;100542.80;;;9.09;78.98
34034;BME280;63481;52.588;22.472;2023-04-20T00:36:33;100542.67;;;9.08;78.94
34034;BME280;63481;52.588;22.472;2023-04-20T00:37:05;100545.42;;;9.06;79.18
34034;BME280;63481;52.588;22.472;2023-04-20T00:37:37;100541.92;;;9.03;79.63
34034;BME280;63481;52.588;22.472;2023-04-20T00:38:09;100543.34;;;9.02;79.71
34034;BME280;63481;52.588;22.472;2023-04-20T00:38:41;100542.65;;;8.99;79.51
34034;BME280;63481;52.588;22.472;2023-04-20T00:39:14;100539.80;;;8.97;79.61
34034;BME280;63481;52.588;22.472;2023-04-20T00:39:46;100541.55;;;9.00;79.10
34034;BME280;63481;52.588;22.472;2023-04-20T00:40:19;100544.00;;;9.04;79.01
34034;BME280;63481;52.588;22.472;2023-04-20T00:40:51;100542.10;;;9.09;78.97
34034;BME280;63481;52.588;22.472;2023-04-20T00:41:24;100541.09;;;9.10;78.91
34034;BME280;63481;52.588;22.472;2023-04-20T00:42:07;100541.35;;;9.12;78.65
34034;BME280;63481;52.588;22.472;2023-04-20T00:42:39;100544.35;;;9.14;78.78
34034;BME280;63481;52.588;22.472;2023-04-20T00:43:13;100540.91;;;9.13;78.40
34034;BME280;63481;52.588;22.472;2023-04-20T00:43:52;100540.97;;;9.15;78.76
34034;BME280;63481;52.588;22.472;2023-04-20T00:44:24;100538.72;;;9.15;78.43
34034;BME280;63481;52.588;22.472;2023-04-20T00:44:57;100541.32;;;9.14;78.64
34034;BME280;63481;52.588;22.472;2023-04-20T00:45:29;100545.30;;;9.14;78.79
34034;BME280;63481;52.588;22.472;2023-04-20T00:46:01;100544.98;;;9.16;78.55
34034;BME280;63481;52.588;22.472;2023-04-20T00:46:34;100542.16;;;9.20;78.76
34034;BME280;63481;52.588;22.472;2023-04-20T00:47:09;100543.00;;;9.17;78.72
34034;BME280;63481;52.588;22.472;2023-04-20T00:47:41;100544.59;;;9.16;78.62
34034;BME280;63481;52.588;22.472;2023-04-20T00:48:13;100542.94;;;9.15;78.62
34034;BME280;63481;52.588;22.472;2023-04-20T00:48:49;100545.92;;;9.11;78.76
34034;BME280;63481;52.588;22.472;2023-04-20T00:49:25;100544.96;;;9.09;78.90
34034;BME280;63481;52.588;22.472;2023-04-20T00:49:59;100543.70;;;9.10;78.62
34034;BME280;63481;52.588;22.472;2023-04-20T00:50:32;100542.34;;;9.17;78.77
34034;BME280;63481;52.588;22.472;2023-04-20T00:51:05;100541.77;;;9.20;78.55
34034;BME280;63481;52.588;22.472;2023-04-20T00:51:37;100539.92;;;9.19;78.50
34034;BME280;63481;52.588;22.472;2023-04-20T00:52:10;100541.30;;;9.16;78.61
34034;BME280;63481;52.588;22.472;2023-04-20T00:52:43;100540.99;;;9.13;78.73
34034;BME280;63481;52.588;22.472;2023-04-20T00:53:16;100541.11;;;9.12;78.61
34034;BME280;63481;52.588;22.472;2023-04-20T00:53:49;100541.70;;;9.14;78.39
34034;BME280;63481;52.588;22.472;2023-04-20T00:54:22;100540.45;;;9.16;78.67
34034;BME280;63481;52.588;22.472;2023-04-20T00:54:54;100538.88;;;9.22;78.07
34034;BME280;63481;52.588;22.472;2023-04-20T00:55:27;100540.73;;;9.25;77.87
34034;BME280;63481;52.588;22.472;2023-04-20T00:56:00;100542.11;;;9.27;78.07
34034;BME280;63481;52.588;22.472;2023-04-20T00:56:33;100539.95;;;9.22;78.28
34034;BME280;63481;52.588;22.472;2023-04-20T00:57:05;100539.31;;;9.21;77.97
34034;BME280;63481;52.588;22.472;2023-04-20T00:57:39;100541.42;;;9.21;78.08
34034;BME280;63481;52.588;22.472;2023-04-20T00:58:12;100543.38;;;9.21;77.96
34034;BME280;63481;52.588;22.472;2023-04-20T00:58:45;100543.22;;;9.21;78.08
34034;BME280;63481;52.588;22.472;2023-04-20T00:59:17;100541.49;;;9.21;78.16
34034;BME280;63481;52.588;22.472;2023-04-20T00:59:53;100538.89;;;9.23;78.30
34034;BME280;63481;52.588;22.472;2023-04-20T01:00:27;100543.83;;;9.22;78.42
34034;BME280;63481;52.588;22.472;2023-04-20T01:00:59;100544.98;;;9.23;78.08
34034;BME280;63481;52.588;22.472;2023-04-20T01:01:31;100542.79;;;9.20;78.40
34034;BME280;63481;52.588;22.472;2023-04-20T01:02:03;100540.63;;;9.22;78.22
34034;BME280;63481;52.588;22.472;2023-04-20T01:02:36;100540.20;;;9.20;78.03
34034;BME280;63481;52.588;22.472;2023-04-20T01:03:08;100545.53;;;9.17;78.19
34034;BME280;63481;52.588;22.472;2023-04-20T01:03:40;100545.86;;;9.17;78.36
34034;BME280;63481;52.588;22.472;2023-04-20T01:04:12;100546.48;;;9.15;78.43
34034;BME280;63481;52.588;22.472;2023-04-20T01:04:46;100544.88;;;9.14;78.55
34034;BME280;63481;52.588;22.472;2023-04-20T01:05:19;100543.73;;;9.17;78.14
34034;BME280;63481;52.588;22.472;2023-04-20T01:05:52;100545.65;;;9.16;78.22
34034;BME280;63481;52.588;22.472;2023-04-20T01:06:26;100543.91;;;9.11;78.58
34034;BME280;63481;52.588;22.472;2023-04-20T01:06:58;100544.86;;;9.10;78.83
34034;BME280;63481;52.588;22.472;2023-04-20T01:07:33;100543.14;;;9.10;78.84
34034;BME280;63481;52.588;22.472;2023-04-20T01:08:05;100541.53;;;9.09;78.60
34034;BME280;63481;52.588;22.472;2023-04-20T01:08:50;100543.45;;;9.09;78.77
34034;BME280;63481;52.588;22.472;2023-04-20T01:09:23;100546.09;;;9.07;78.99
34034;BME280;63481;52.588;22.472;2023-04-20T01:09:55;100540.98;;;9.08;78.79
34034;BME280;63481;52.588;22.472;2023-04-20T01:10:27;100544.09;;;9.07;78.90
34034;BME280;63481;52.588;22.472;2023-04-20T01:10:59;100541.61;;;9.06;78.90
34034;BME280;63481;52.588;22.472;2023-04-20T01:11:31;100545.49;;;9.06;78.99
34034;BME280;63481;52.588;22.472;2023-04-20T01:12:04;100545.89;;;9.08;78.87
34034;BME280;63481;52.588;22.472;2023-04-20T01:12:37;100544.58;;;9.08;78.81
34034;BME280;63481;52.588;22.472;2023-04-20T01:13:09;100540.98;;;9.07;78.75
34034;BME280;63481;52.588;22.472;2023-04-20T01:13:41;100540.70;;;9.05;79.12
34034;BME280;63481;52.588;22.472;2023-04-20T01:14:14;100543.41;;;9.06;79.03
34034;BME280;63481;52.588;22.472;2023-04-20T01:14:46;100542.98;;;9.06;79.02
34034;BME280;63481;52.588;22.472;2023-04-20T01:15:18;100545.46;;;9.06;79.00
34034;BME280;63481;52.588;22.472;2023-04-20T01:15:51;100544.07;;;9.05;78.98
34034;BME280;63481;52.588;22.472;2023-04-20T01:16:23;100543.24;;;9.05;78.76
34034;BME280;63481;52.588;22.472;2023-04-20T01:16:55;100544.51;;;9.04;78.90
34034;BME280;63481;52.588;22.472;2023-04-20T01:17:28;100545.25;;;9.05;78.80
34034;BME280;63481;52.588;22.472;2023-04-20T01:18:00;100544.10;;;9.07;78.85
34034;BME280;63481;52.588;22.472;2023-04-20T01:18:44;100545.45;;;9.09;78.86
34034;BME280;63481;52.588;22.472;2023-04-20T01:19:17;100542.66;;;9.11;78.68
34034;BME280;63481;52.588;22.472;2023-04-20T01:19:49;100542.18;;;9.10;78.66
34034;BME280;63481;52.588;22.472;2023-04-20T01:20:22;100542.96;;;9.09;78.59
34034;BME280;63481;52.588;22.472;2023-04-20T01:20:54;100543.04;;;9.08;78.77
34034;BME280;63481;52.588;22.472;2023-04-20T01:21:26;100541.92;;;9.08;78.84
34034;BME280;63481;52.588;22.472;2023-04-20T01:21:58;100537.95;;;9.07;78.35
34034;BME280;63481;52.588;22.472;2023-04-20T01:22:31;100540.55;;;9.10;77.90
34034;BME280;63481;52.588;22.472;2023-04-20T01:23:03;100538.83;;;9.12;78.34
34034;BME280;63481;52.588;22.472;2023-04-20T01:23:35;100542.02;;;9.12;78.22
34034;BME280;63481;52.588;22.472;2023-04-20T01:24:08;100539.99;;;9.11;78.35
34034;BME280;63481;52.588;22.472;2023-04-20T01:24:40;100536.59;;;9.10;78.43
34034;BME280;63481;52.588;22.472;2023-04-20T01:25:13;100537.34;;;9.11;77.98
34034;BME280;63481;52.588;22.472;2023-04-20T01:25:46;100540.13;;;9.12;78.03
34034;BME280;63481;52.588;22.472;2023-04-20T01:26:22;100535.22;;;9.13;77.99
34034;BME280;63481;52.588;22.472;2023-04-20T01:26:55;100533.08;;;9.16;77.83
34034;BME280;63481;52.588;22.472;2023-04-20T01:27:28;100534.42;;;9.15;78.04
34034;BME280;63481;52.588;22.472;2023-04-20T01:28:00;100537.73;;;9.13;78.04
34034;BME280;63481;52.588;22.472;2023-04-20T01:28:34;100533.66;;;9.13;78.02
34034;BME280;63481;52.588;22.472;2023-04-20T01:29:06;100533.11;;;9.14;78.07
34034;BME280;63481;52.588;22.472;2023-04-20T01:29:39;100535.55;;;9.13;77.80
34034;BME280;63481;52.588;22.472;2023-04-20T01:30:12;100534.66;;;9.13;78.14
34034;BME280;63481;52.588;22.472;2023-04-20T01:30:44;100533.13;;;9.17;77.87
34034;BME280;63481;52.588;22.472;2023-04-20T01:31:16;100534.41;;;9.18;77.76
34034;BME280;63481;52.588;22.472;2023-04-20T01:31:51;100537.26;;;9.16;77.74
34034;BME280;63481;52.588;22.472;2023-04-20T01:32:23;100535.48;;;9.19;77.60
34034;BME280;63481;52.588;22.472;2023-04-20T01:32:56;100536.99;;;9.18;77.65
34034;BME280;63481;52.588;22.472;2023-04-20T01:33:28;100535.66;;;9.16;77.58
34034;BME280;63481;52.588;22.472;2023-04-20T01:34:00;100538.21;;;9.14;77.66
34034;BME280;63481;52.588;22.472;2023-04-20T01:34:32;100536.92;;;9.15;77.64
34034;BME280;63481;52.588;22.472;2023-04-20T01:35:04;100536.56;;;9.13;77.81
34034;BME280;63481;52.588;22.472;2023-04-20T01:35:41;100534.11;;;9.12;77.53
34034;BME280;63481;52.588;22.472;2023-04-20T01:36:14;100532.95;;;9.11;77.74
34034;BME280;63481;52.588;22.472;2023-04-20T01:36:46;100537.80;;;9.09;77.99
34034;BME280;63481;52.588;22.472;2023-04-20T01:37:18;100535.20;;;9.10;77.95
34034;BME280;63481;52.588;22.472;2023-04-20T01:37:50;100537.33;;;9.10;78.33
34034;BME280;63481;52.588;22.472;2023-04-20T01:38:24;100534.45;;;9.09;77.74
34034;BME280;63481;52.588;22.472;2023-04-20T01:38:57;100533.97;;;9.10;77.93
34034;BME280;63481;52.588;22.472;2023-04-20T01:39:29;100539.23;;;9.09;77.88
34034;BME280;63481;52.588;22.472;2023-04-20T01:40:02;100542.87;;;9.05;78.14
34034;BME280;63481;52.588;22.472;2023-04-20T01:40:34;100540.38;;;9.01;78.48
34034;BME280;63481;52.588;22.472;2023-04-20T01:41:08;100540.33;;;9.00;78.31
34034;BME280;63481;52.588;22.472;2023-04-20T01:41:42;100543.11;;;8.99;78.01
34034;BME280;63481;52.588;22.472;2023-04-20T01:42:15;100543.02;;;9.00;78.26
34034;BME280;63481;52.588;22.472;2023-04-20T01:42:47;100540.86;;;9.00;78.15
34034;BME280;63481;52.588;22.472;2023-04-20T01:43:22;100541.95;;;9.02;78.00
34034;BME280;63481;52.588;22.472;2023-04-20T01:43:54;100542.22;;;9.05;77.91
34034;BME280;63481;52.588;22.472;2023-04-20T01:44:26;100544.67;;;9.04;77.84
34034;BME280;63481;52.588;22.472;2023-04-20T01:44:58;100543.17;;;9.03;77.88
34034;BME280;63481;52.588;22.472;2023-04-20T01:45:31;100547.17;;;9.04;78.03
34034;BME280;63481;52.588;22.472;2023-04-20T01:46:03;100546.98;;;9.01;77.95
34034;BME280;63481;52.588;22.472;2023-04-20T01:46:37;100544.84;;;8.96;78.24
34034;BME280;63481;52.588;22.472;2023-04-20T01:47:11;100546.73;;;8.94;78.46
34034;BME280;63481;52.588;22.472;2023-04-20T01:47:45;100544.02;;;8.92;78.41
34034;BME280;63481;52.588;22.472;2023-04-20T01:48:17;100542.15;;;8.91;78.53
34034;BME280;63481;52.588;22.472;2023-04-20T01:48:49;100546.98;;;8.91;78.65
34034;BME280;63481;52.588;22.472;2023-04-20T01:49:24;100547.00;;;8.89;78.95
34034;BME280;63481;52.588;22.472;2023-04-20T01:49:56;100550.13;;;8.87;78.76
34034;BME280;63481;52.588;22.472;2023-04-20T01:50:30;100551.34;;;8.88;78.60
34034;BME280;63481;52.588;22.472;2023-04-20T01:51:02;100549.48;;;8.88;78.55
34034;BME280;63481;52.588;22.472;2023-04-20T01:51:35;100549.02;;;8.86;78.74
34034;BME280;63481;52.588;22.472;2023-04-20T01:52:08;100547.67;;;8.87;78.99
34034;BME280;63481;52.588;22.472;2023-04-20T01:52:40;100551.77;;;8.92;78.68
34034;BME280;63481;52.588;22.472;2023-04-20T01:53:12;100548.13;;;8.94;78.68
34034;BME280;63481;52.588;22.472;2023-04-20T01:53:44;100552.60;;;8.97;78.73
34034;BME280;63481;52.588;22.472;2023-04-20T01:54:16;100548.46;;;8.99;78.28
34034;BME280;63481;52.588;22.472;2023-04-20T01:54:48;100550.70;;;9.03;78.00
34034;BME280;63481;52.588;22.472;2023-04-20T01:55:21;100551.98;;;8.99;78.21
34034;BME280;63481;52.588;22.472;2023-04-20T01:55:53;100552.98;;;8.98;78.11
34034;BME280;63481;52.588;22.472;2023-04-20T01:56:27;100551.30;;;8.97;78.36
34034;BME280;63481;52.588;22.472;2023-04-20T01:57:03;100554.33;;;9.00;78.55
34034;BME280;63481;52.588;22.472;2023-04-20T01:57:35;100554.27;;;8.99;78.75
34034;BME280;63481;52.588;22.472;2023-04-20T01:58:07;100557.05;;;8.98;78.30
34034;BME280;63481;52.588;22.472;2023-04-20T01:58:39;100554.13;;;8.96;78.79
34034;BME280;63481;52.588;22.472;2023-04-20T01:59:11;100553.77;;;8.94;78.65
34034;BME280;63481;52.588;22.472;2023-04-20T01:59:43;100554.40;;;8.91;78.62
34034;BME280;63481;52.588;22.472;2023-04-20T02:00:15;100553.36;;;8.91;79.01
34034;BME280;63481;52.588;22.472;2023-04-20T02:00:51;100552.22;;;8.94;78.67
34034;BME280;63481;52.588;22.472;2023-04-20T02:01:23;100551.38;;;8.95;78.55
34034;BME280;63481;52.588;22.472;2023-04-20T02:01:55;100551.52;;;8.93;78.77
34034;BME280;63481;52.588;22.472;2023-04-20T02:02:27;100553.70;;;8.92;78.70
34034;BME280;63481;52.588;22.472;2023-04-20T02:02:59;100552.58;;;8.97;78.66
34034;BME280;63481;52.588;22.472;2023-04-20T02:03:31;100550.23;;;8.99;78.35
34034;BME280;63481;52.588;22.472;2023-04-20T02:04:04;100553.63;;;8.99;78.73
34034;BME280;63481;52.588;22.472;2023-04-20T02:04:36;100552.68;;;8.99;78.27
34034;BME280;63481;52.588;22.472;2023-04-20T02:05:11;100551.58;;;9.00;78.69
34034;BME280;63481;52.588;22.472;2023-04-20T02:05:43;100554.07;;;8.99;78.48
34034;BME280;63481;52.588;22.472;2023-04-20T02:06:15;100551.41;;;9.04;77.95
34034;BME280;63481;52.588;22.472;2023-04-20T02:06:50;100554.54;;;9.06;78.07
34034;BME280;63481;52.588;22.472;2023-04-20T02:07:22;100555.30;;;9.07;78.11
34034;BME280;63481;52.588;22.472;2023-04-20T02:07:54;100554.58;;;9.04;78.22
34034;BME280;63481;52.588;22.472;2023-04-20T02:08:26;100554.27;;;9.04;78.35
34034;BME280;63481;52.588;22.472;2023-04-20T02:08:59;100555.33;;;9.03;78.01
34034;BME280;63481;52.588;22.472;2023-04-20T02:09:31;100555.84;;;9.04;78.17
34034;BME280;63481;52.588;22.472;2023-04-20T02:10:04;100556.52;;;9.06;78.04
34034;BME280;63481;52.588;22.472;2023-04-20T02:10:36;100552.17;;;9.05;78.01
34034;BME280;63481;52.588;22.472;2023-04-20T02:11:08;100551.65;;;9.03;78.00
34034;BME280;63481;52.588;22.472;2023-04-20T02:11:40;100554.33;;;9.03;78.06
34034;BME280;63481;52.588;22.472;2023-04-20T02:12:12;100552.92;;;9.03;77.98
34034;BME280;63481;52.588;22.472;2023-04-20T02:12:44;100553.21;;;9.04;78.38
34034;BME280;63481;52.588;22.472;2023-04-20T02:13:17;100554.81;;;9.04;78.27
34034;BME280;63481;52.588;22.472;2023-04-20T02:13:50;100552.54;;;9.05;78.31
34034;BME280;63481;52.588;22.472;2023-04-20T02:14:22;100556.62;;;9.05;78.36
34034;BME280;63481;52.588;22.472;2023-04-20T02:14:54;100552.28;;;9.04;78.35
34034;BME280;63481;52.588;22.472;2023-04-20T02:15:29;100556.17;;;9.06;78.58
34034;BME280;63481;52.588;22.472;2023-04-20T02:16:01;100559.81;;;9.03;78.30
34034;BME280;63481;52.588;22.472;2023-04-20T02:16:34;100556.60;;;9.02;78.30
34034;BME280;63481;52.588;22.472;2023-04-20T02:17:06;100552.88;;;9.03;78.30
34034;BME280;63481;52.588;22.472;2023-04-20T02:17:38;100552.07;;;9.04;78.13
34034;BME280;63481;52.588;22.472;2023-04-20T02:18:11;100554.88;;;9.03;78.33
34034;BME280;63481;52.588;22.472;2023-04-20T02:18:44;100557.95;;;9.03;78.30
34034;BME280;63481;52.588;22.472;2023-04-20T02:19:16;100556.91;;;9.01;78.44
34034;BME280;63481;52.588;22.472;2023-04-20T02:19:48;100555.42;;;9.00;78.47
34034;BME280;63481;52.588;22.472;2023-04-20T02:20:20;100554.04;;;9.00;78.26
34034;BME280;63481;52.588;22.472;2023-04-20T02:20:53;100554.59;;;8.99;78.24
34034;BME280;63481;52.588;22.472;2023-04-20T02:21:28;100554.45;;;8.96;78.15
34034;BME280;63481;52.588;22.472;2023-04-20T02:22:00;100554.34;;;8.97;78.21
34034;BME280;63481;52.588;22.472;2023-04-20T02:22:32;100554.59;;;8.98;78.79
34034;BME280;63481;52.588;22.472;2023-04-20T02:23:07;100555.49;;;9.02;78.38
34034;BME280;63481;52.588;22.472;2023-04-20T02:23:40;100552.70;;;9.05;78.39
34034;BME280;63481;52.588;22.472;2023-04-20T02:24:12;100552.89;;;9.03;78.24
34034;BME280;63481;52.588;22.472;2023-04-20T02:24:44;100553.58;;;9.04;78.49
34034;BME280;63481;52.588;22.472;2023-04-20T02:25:17;100552.25;;;9.04;78.44
34034;BME280;63481;52.588;22.472;2023-04-20T02:25:49;100555.98;;;9.06;78.10
34034;BME280;63481;52.588;22.472;2023-04-20T02:26:22;100554.80;;;9.04;78.24
34034;BME280;63481;52.588;22.472;2023-04-20T02:26:54;100552.59;;;9.02;78.64
34034;BME280;63481;52.588;22.472;2023-04-20T02:27:27;100555.77;;;9.00;78.41
34034;BME280;63481;52.588;22.472;2023-04-20T02:27:59;100553.89;;;9.01;78.71
34034;BME280;63481;52.588;22.472;2023-04-20T02:28:31;100552.02;;;9.00;78.34
34034;BME280;63481;52.588;22.472;2023-04-20T02:29:04;100550.13;;;9.02;78.46
34034;BME280;63481;52.588;22.472;2023-04-20T02:29:38;100553.05;;;9.02;78.40
34034;BME280;63481;52.588;22.472;2023-04-20T02:30:10;100554.43;;;9.03;78.26
34034;BME280;63481;52.588;22.472;2023-04-20T02:30:43;100552.88;;;9.03;78.40
34034;BME280;63481;52.588;22.472;2023-04-20T02:31:16;100552.42;;;9.02;78.49
34034;BME280;63481;52.588;22.472;2023-04-20T02:31:50;100551.98;;;9.04;78.33
34034;BME280;63481;52.588;22.472;2023-04-20T02:32:22;100549.48;;;9.03;78.56
34034;BME280;63481;52.588;22.472;2023-04-20T02:32:58;100548.32;;;9.05;78.39
34034;BME280;63481;52.588;22.472;2023-04-20T02:33:31;100548.55;;;9.07;78.05
34034;BME280;63481;52.588;22.472;2023-04-20T02:34:06;100547.52;;;9.07;78.25
34034;BME280;63481;52.588;22.472;2023-04-20T02:34:40;100548.05;;;9.04;78.37
34034;BME280;63481;52.588;22.472;2023-04-20T02:35:12;100549.84;;;9.02;78.41
34034;BME280;63481;52.588;22.472;2023-04-20T02:35:44;100552.05;;;9.03;78.07
34034;BME280;63481;52.588;22.472;2023-04-20T02:36:16;100549.48;;;9.02;78.18
34034;BME280;63481;52.588;22.472;2023-04-20T02:36:48;100551.92;;;9.06;78.06
34034;BME280;63481;52.588;22.472;2023-04-20T02:37:20;100554.86;;;9.06;78.02
34034;BME280;63481;52.588;22.472;2023-04-20T02:37:55;100551.29;;;9.08;77.80
34034;BME280;63481;52.588;22.472;2023-04-20T02:38:30;100552.84;;;9.07;77.99
34034;BME280;63481;52.588;22.472;2023-04-20T02:39:02;100552.52;;;9.08;77.85
34034;BME280;63481;52.588;22.472;2023-04-20T02:39:35;100551.40;;;9.10;78.15
34034;BME280;63481;52.588;22.472;2023-04-20T02:40:07;100552.83;;;9.14;78.32
34034;BME280;63481;52.588;22.472;2023-04-20T02:40:39;100550.59;;;9.15;78.10
34034;BME280;63481;52.588;22.472;2023-04-20T02:41:12;100550.04;;;9.12;78.30
34034;BME280;63481;52.588;22.472;2023-04-20T02:41:44;100547.52;;;9.10;78.34
34034;BME280;63481;52.588;22.472;2023-04-20T02:42:17;100546.96;;;9.06;78.78
34034;BME280;63481;52.588;22.472;2023-04-20T02:42:49;100547.42;;;9.05;78.73
34034;BME280;63481;52.588;22.472;2023-04-20T02:43:22;100546.77;;;9.04;78.67
34034;BME280;63481;52.588;22.472;2023-04-20T02:43:54;100546.83;;;9.02;78.99
34034;BME280;63481;52.588;22.472;2023-04-20T02:44:27;100546.39;;;9.00;79.19
34034;BME280;63481;52.588;22.472;2023-04-20T02:44:59;100542.34;;;8.97;79.26
34034;BME280;63481;52.588;22.472;2023-04-20T02:45:32;100545.02;;;8.95;79.39
34034;BME280;63481;52.588;22.472;2023-04-20T02:46:04;100542.66;;;8.93;79.56
34034;BME280;63481;52.588;22.472;2023-04-20T02:46:36;100544.70;;;8.96;78.84
34034;BME280;63481;52.588;22.472;2023-04-20T02:47:08;100545.64;;;8.99;78.89
34034;BME280;63481;52.588;22.472;2023-04-20T02:47:40;100544.94;;;9.02;78.74
34034;BME280;63481;52.588;22.472;2023-04-20T02:48:13;100544.64;;;9.01;78.77
34034;BME280;63481;52.588;22.472;2023-04-20T02:48:45;100542.77;;;9.03;78.78
34034;BME280;63481;52.588;22.472;2023-04-20T02:49:17;100547.63;;;9.06;78.32
34034;BME280;63481;52.588;22.472;2023-04-20T02:49:49;100540.38;;;9.04;78.50
34034;BME280;63481;52.588;22.472;2023-04-20T02:50:22;100543.04;;;9.04;78.78
34034;BME280;63481;52.588;22.472;2023-04-20T02:51:05;100544.55;;;9.08;78.26
34034;BME280;63481;52.588;22.472;2023-04-20T02:51:43;100544.48;;;9.10;78.51
34034;BME280;63481;52.588;22.472;2023-04-20T02:52:15;100545.40;;;9.11;78.37